Observation data for Olton on 11/21/2020      Previous  Date       Current Mesonet Observations  Soil Data  Daily Summary Page  Observations in Plain Language
KONS 210600Z 03008KT 08/02 A3032 RMK A01 T00800024  RH  069%=      5-min Rain = 0
KONS 210605Z 03009KT 08/02 A3032 RMK A01 T00800024  RH  069%=      5-min Rain = 0
KONS 210610Z 03009KT 08/03 A3032 RMK A01 T00790025  RH  070%=      5-min Rain = 0
KONS 210615Z 03008KT 08/03 A3032 RMK A01 T00790025  RH  070%=      5-min Rain = 0
KONS 210620Z 03009KT 08/03 A3032 RMK A01 T00780025  RH  071%=      5-min Rain = 0
KONS 210625Z 03009KT 08/03 A3032 RMK A01 T00770026  RH  071%=      5-min Rain = 0
KONS 210630Z 02009KT 08/03 A3032 RMK A01 T00770027  RH  072%=      5-min Rain = 0
KONS 210635Z 02009KT 08/03 A3032 RMK A01 T00780027  RH  072%=      5-min Rain = 0
KONS 210640Z 02009KT 08/03 A3032 RMK A01 T00780028  RH  072%=      5-min Rain = 0
KONS 210645Z 02009KT 08/03 A3032 RMK A01 T00780029  RH  072%=      5-min Rain = 0
KONS 210650Z 02009KT 08/03 A3032 RMK A01 T00770029  RH  073%=      5-min Rain = 0
KONS 210655Z 02009KT 08/03 A3032 RMK A01 T00770030  RH  074%=      5-min Rain = 0
KONS 210700Z 02009KT 08/03 A3032 RMK A01 T00780032  RH  074%=      5-min Rain = 0
KONS 210705Z 02008KT 08/03 A3032 RMK A01 T00770032  RH  075%=      5-min Rain = 0
KONS 210710Z 02008KT 08/03 A3033 RMK A01 T00760033  RH  076%=      5-min Rain = 0
KONS 210715Z 02008KT 08/03 A3033 RMK A01 T00750033  RH  076%=      5-min Rain = 0
KONS 210720Z 02008KT 08/03 A3033 RMK A01 T00750034  RH  077%=      5-min Rain = 0
KONS 210725Z 02008KT 07/03 A3033 RMK A01 T00740034  RH  077%=      5-min Rain = 0
KONS 210730Z 02008KT 07/03 A3033 RMK A01 T00720033  RH  078%=      5-min Rain = 0
KONS 210735Z 02008KT 07/03 A3033 RMK A01 T00710033  RH  078%=      5-min Rain = 0
KONS 210740Z 02007KT 07/03 A3032 RMK A01 T00700033  RH  078%=      5-min Rain = 0
KONS 210745Z 03007KT 07/03 A3032 RMK A01 T00700033  RH  079%=      5-min Rain = 0
KONS 210750Z 03007KT 07/03 A3032 RMK A01 T00700033  RH  079%=      5-min Rain = 0
KONS 210755Z 02007KT 07/03 A3032 RMK A01 T00690034  RH  079%=      5-min Rain = 0
KONS 210800Z 02007KT 07/03 A3032 RMK A01 T00690033  RH  079%=      5-min Rain = 0
KONS 210805Z 02008KT 07/03 A3032 RMK A01 T00690033  RH  079%=      5-min Rain = 0
KONS 210810Z 02008KT 07/03 A3032 RMK A01 T00700033  RH  079%=      5-min Rain = 0
KONS 210815Z 02007KT 07/03 A3032 RMK A01 T00690032  RH  078%=      5-min Rain = 0
KONS 210820Z 02007KT 07/03 A3032 RMK A01 T00690032  RH  078%=      5-min Rain = 0
KONS 210825Z 03008KT 07/03 A3032 RMK A01 T00690032  RH  078%=      5-min Rain = 0
KONS 210830Z 03007KT 07/03 A3032 RMK A01 T00700032  RH  078%=      5-min Rain = 0
KONS 210835Z 03006KT 07/03 A3031 RMK A01 T00690033  RH  079%=      5-min Rain = 0
KONS 210840Z 03007KT 07/03 A3031 RMK A01 T00700033  RH  079%=      5-min Rain = 0
KONS 210845Z 03007KT 07/03 A3031 RMK A01 T00710034  RH  079%=      5-min Rain = 0
KONS 210850Z 03007KT 07/04 A3031 RMK A01 T00720035  RH  079%=      5-min Rain = 0
KONS 210855Z 03007KT 07/04 A3031 RMK A01 T00720035  RH  079%=      5-min Rain = 0
KONS 210900Z 03007KT 07/04 A3031 RMK A01 T00740036  RH  078%=      5-min Rain = 0
KONS 210905Z 03008KT 08/04 A3031 RMK A01 T00750036  RH  078%=      5-min Rain = 0
KONS 210910Z 02007KT 08/04 A3031 RMK A01 T00750036  RH  078%=      5-min Rain = 0
KONS 210915Z 03008KT 08/04 A3031 RMK A01 T00750038  RH  079%=      5-min Rain = 0
KONS 210920Z 03008KT 08/04 A3031 RMK A01 T00760039  RH  079%=      5-min Rain = 0
KONS 210925Z 03007KT 08/04 A3031 RMK A01 T00770040  RH  079%=      5-min Rain = 0
KONS 210930Z 04007KT 08/04 A3031 RMK A01 T00770040  RH  079%=      5-min Rain = 0
KONS 210935Z 03007KT 08/04 A3031 RMK A01 T00770039  RH  079%=      5-min Rain = 0
KONS 210940Z 03007KT 08/04 A3032 RMK A01 T00780041  RH  079%=      5-min Rain = 0
KONS 210945Z 03007KT 08/04 A3031 RMK A01 T00790042  RH  079%=      5-min Rain = 0
KONS 210950Z 03007KT 08/04 A3032 RMK A01 T00800042  RH  079%=      5-min Rain = 0
KONS 210955Z 03007KT 08/04 A3032 RMK A01 T00800042  RH  079%=      5-min Rain = 0
KONS 211000Z 03006KT 08/04 A3031 RMK A01 T00790043  RH  079%=      5-min Rain = 0
KONS 211005Z 03006KT 08/04 A3031 RMK A01 T00790044  RH  080%=      5-min Rain = 0
KONS 211010Z 04006KT 08/04 A3031 RMK A01 T00790044  RH  080%=      5-min Rain = 0
KONS 211015Z 04007KT 08/05 A3031 RMK A01 T00800046  RH  080%=      5-min Rain = 0
KONS 211020Z 04006KT 08/05 A3031 RMK A01 T00800046  RH  081%=      5-min Rain = 0
KONS 211025Z 04006KT 08/05 A3031 RMK A01 T00780045  RH  081%=      5-min Rain = 0
KONS 211030Z 04005KT 08/05 A3031 RMK A01 T00770045  RH  082%=      5-min Rain = 0
KONS 211035Z 03006KT 08/04 A3031 RMK A01 T00750044  RH  082%=      5-min Rain = 0
KONS 211040Z 03006KT 07/04 A3032 RMK A01 T00730043  RH  083%=      5-min Rain = 0
KONS 211045Z 03006KT 07/04 A3032 RMK A01 T00720043  RH  084%=      5-min Rain = 0
KONS 211050Z 03007KT 07/04 A3031 RMK A01 T00730044  RH  084%=      5-min Rain = 0
KONS 211055Z 03006KT 07/05 A3031 RMK A01 T00730046  RH  084%=      5-min Rain = 0
KONS 211100Z 04006KT 07/05 A3032 RMK A01 T00740046  RH  084%=      5-min Rain = 0
KONS 211105Z 05007KT 08/05 A3031 RMK A01 T00750047  RH  084%=      5-min Rain = 0
KONS 211110Z 05007KT 08/05 A3031 RMK A01 T00760048  RH  084%=      5-min Rain = 0
KONS 211115Z 05006KT 08/05 A3031 RMK A01 T00760049  RH  085%=      5-min Rain = 0
KONS 211120Z 04006KT 08/05 A3032 RMK A01 T00770050  RH  085%=      5-min Rain = 0
KONS 211125Z 02005KT 08/05 A3032 RMK A01 T00770049  RH  084%=      5-min Rain = 0
KONS 211130Z 02005KT 08/05 A3032 RMK A01 T00780050  RH  084%=      5-min Rain = 0
KONS 211135Z 03004KT 08/05 A3032 RMK A01 T00790050  RH  084%=      5-min Rain = 0
KONS 211140Z 04005KT 08/05 A3032 RMK A01 T00790050  RH  084%=      5-min Rain = 0
KONS 211145Z 03006KT 08/05 A3032 RMK A01 T00800050  RH  083%=      5-min Rain = 0
KONS 211150Z 03006KT 08/05 A3032 RMK A01 T00800050  RH  083%=      5-min Rain = 0
KONS 211155Z 03006KT 08/05 A3032 RMK A01 T00790050  RH  084%=      5-min Rain = 0
KONS 211200Z 03005KT 08/05 A3032 RMK A01 T00790050  RH  084%=      5-min Rain = 0
KONS 211205Z 04005KT 08/05 A3032 RMK A01 T00800051  RH  084%=      5-min Rain = 0
KONS 211210Z 04006KT 08/05 A3032 RMK A01 T00800051  RH  084%=      5-min Rain = 0
KONS 211215Z 04006KT 08/05 A3032 RMK A01 T00800051  RH  084%=      5-min Rain = 0
KONS 211220Z 05005KT 08/05 A3032 RMK A01 T00800051  RH  084%=      5-min Rain = 0
KONS 211225Z 05005KT 08/05 A3032 RMK A01 T00800052  RH  084%=      5-min Rain = 0
KONS 211230Z 05005KT 08/05 A3032 RMK A01 T00790052  RH  085%=      5-min Rain = 0
KONS 211235Z 05005KT 08/05 A3032 RMK A01 T00780051  RH  085%=      5-min Rain = 0
KONS 211240Z 05005KT 08/05 A3032 RMK A01 T00770051  RH  086%=      5-min Rain = 0
KONS 211245Z 04006KT 08/05 A3032 RMK A01 T00760051  RH  086%=      5-min Rain = 0
KONS 211250Z 04006KT 08/05 A3032 RMK A01 T00760052  RH  086%=      5-min Rain = 0
KONS 211255Z 04006KT 08/05 A3032 RMK A01 T00770052  RH  086%=      5-min Rain = 0
KONS 211300Z 02006KT 08/05 A3033 RMK A01 T00760051  RH  086%=      5-min Rain = 0
KONS 211305Z 02006KT 08/05 A3033 RMK A01 T00750051  RH  086%=      5-min Rain = 0
KONS 211310Z 02005KT 08/05 A3033 RMK A01 T00770052  RH  086%=      5-min Rain = 0
KONS 211315Z 02005KT 08/05 A3033 RMK A01 T00780052  RH  086%=      5-min Rain = 0
KONS 211320Z 01005KT 08/05 A3033 RMK A01 T00800053  RH  085%=      5-min Rain = 0
KONS 211325Z 00005KT 08/05 A3033 RMK A01 T00810054  RH  085%=      5-min Rain = 0
KONS 211330Z 03004KT 08/05 A3033 RMK A01 T00820054  RH  084%=      5-min Rain = 0
KONS 211335Z 05004KT 08/05 A3032 RMK A01 T00820054  RH  085%=      5-min Rain = 0
KONS 211340Z 07005KT 08/06 A3031 RMK A01 T00840057  RH  085%=      5-min Rain = 0
KONS 211345Z 07005KT 09/06 A3031 RMK A01 T00860058  RH  085%=      5-min Rain = 0
KONS 211350Z 07005KT 09/06 A3031 RMK A01 T00870058  RH  084%=      5-min Rain = 0
KONS 211355Z 06004KT 09/06 A3032 RMK A01 T00870059  RH  084%=      5-min Rain = 0
KONS 211400Z 07004KT 09/06 A3032 RMK A01 T00890060  RH  084%=      5-min Rain = 0
KONS 211405Z 07006KT 09/06 A3032 RMK A01 T00930064  RH  084%=      5-min Rain = 0
KONS 211410Z 07006KT 10/07 A3033 RMK A01 T00960067  RH  084%=      5-min Rain = 0
KONS 211415Z 07007KT 10/07 A3033 RMK A01 T00980069  RH  084%=      5-min Rain = 0
KONS 211420Z 07008KT 10/07 A3033 RMK A01 T00990071  RH  085%=      5-min Rain = 0
KONS 211425Z 07008KT 10/07 A3033 RMK A01 T01000073  RH  086%=      5-min Rain = 0
KONS 211430Z 08007KT 10/07 A3033 RMK A01 T01000073  RH  085%=      5-min Rain = 0
KONS 211435Z 08008KT 10/07 A3033 RMK A01 T01010074  RH  085%=      5-min Rain = 0
KONS 211440Z 08009KT 10/08 A3033 RMK A01 T01020075  RH  086%=      5-min Rain = 0
KONS 211445Z 07009KT 10/08 A3033 RMK A01 T01030076  RH  086%=      5-min Rain = 0
KONS 211450Z 07009KT 10/08 A3033 RMK A01 T01030077  RH  086%=      5-min Rain = 0
KONS 211455Z 07009KT 10/08 A3033 RMK A01 T01030078  RH  087%=      5-min Rain = 0
KONS 211500Z 07008KT 10/08 A3034 RMK A01 T01040078  RH  086%=      5-min Rain = 0
KONS 211505Z 07008KT 11/08 A3033 RMK A01 T01050079  RH  087%=      5-min Rain = 0
KONS 211510Z 07008KT 11/08 A3033 RMK A01 T01060080  RH  086%=      5-min Rain = 0
KONS 211515Z 07008KT 11/08 A3033 RMK A01 T01080081  RH  086%=      5-min Rain = 0
KONS 211520Z 08009KT 11/08 A3033 RMK A01 T01130084  RH  085%=      5-min Rain = 0
KONS 211525Z 07009KT 12/08 A3033 RMK A01 T01150084  RH  084%=      5-min Rain = 0
KONS 211530Z 08010KT 12/09 A3033 RMK A01 T01180086  RH  083%=      5-min Rain = 0
KONS 211535Z 08010KT 12/09 A3033 RMK A01 T01190087  RH  083%=      5-min Rain = 0
KONS 211540Z 08009KT 12/09 A3033 RMK A01 T01220088  RH  082%=      5-min Rain = 0
KONS 211545Z 07009KT 12/09 A3033 RMK A01 T01210088  RH  082%=      5-min Rain = 0
KONS 211550Z 07009KT 12/09 A3033 RMK A01 T01200088  RH  083%=      5-min Rain = 0
KONS 211555Z 08009KT 12/09 A3033 RMK A01 T01210089  RH  083%=      5-min Rain = 0
KONS 211600Z 08008KT 12/09 A3033 RMK A01 T01230089  RH  082%=      5-min Rain = 0
KONS 211605Z 07009KT 12/09 A3033 RMK A01 T01240089  RH  082%=      5-min Rain = 0
KONS 211610Z 08008KT 13/09 A3033 RMK A01 T01250090  RH  082%=      5-min Rain = 0
KONS 211615Z 08009KT 13/09 A3033 RMK A01 T01260090  RH  081%=      5-min Rain = 0
KONS 211620Z 08009KT 13/09 A3033 RMK A01 T01270090  RH  081%=      5-min Rain = 0
KONS 211625Z 08008KT 13/09 A3033 RMK A01 T01290090  RH  080%=      5-min Rain = 0
KONS 211630Z 08009KT 13/09 A3033 RMK A01 T01290091  RH  080%=      5-min Rain = 0
KONS 211635Z 08008KT 13/09 A3033 RMK A01 T01300091  RH  079%=      5-min Rain = 0
KONS 211640Z 09008KT 13/09 A3033 RMK A01 T01310091  RH  079%=      5-min Rain = 0
KONS 211645Z 09008KT 14/09 A3033 RMK A01 T01360092  RH  077%=      5-min Rain = 0
KONS 211650Z 09007KT 14/09 A3033 RMK A01 T01400093  RH  076%=      5-min Rain = 0
KONS 211655Z 10008KT 14/09 A3033 RMK A01 T01410093  RH  075%=      5-min Rain = 0
KONS 211700Z 10008KT 14/09 A3033 RMK A01 T01420093  RH  074%=      5-min Rain = 0
KONS 211705Z 09008KT 14/09 A3033 RMK A01 T01420093  RH  074%=      5-min Rain = 0
KONS 211710Z 12006G11KT 15/09 A3033 RMK A01 T01470094  RH  073%=      5-min Rain = 0
KONS 211715Z 11007G12KT 15/09 A3033 RMK A01 T01490093  RH  071%=      5-min Rain = 0
KONS 211720Z 12007KT 15/09 A3033 RMK A01 T01540094  RH  069%=      5-min Rain = 0
KONS 211725Z 13007KT 15/09 A3032 RMK A01 T01510093  RH  070%=      5-min Rain = 0
KONS 211730Z 11007KT 15/09 A3032 RMK A01 T01510093  RH  070%=      5-min Rain = 0
KONS 211735Z 11006KT 15/09 A3032 RMK A01 T01530093  RH  069%=      5-min Rain = 0
KONS 211740Z 12008KT 16/09 A3032 RMK A01 T01560094  RH  069%=      5-min Rain = 0
KONS 211745Z 12006KT 16/09 A3032 RMK A01 T01550093  RH  069%=      5-min Rain = 0
KONS 211750Z 14006KT 16/09 A3032 RMK A01 T01570094  RH  068%=      5-min Rain = 0
KONS 211755Z 13006KT 16/09 A3031 RMK A01 T01570093  RH  068%=      5-min Rain = 0
KONS 211800Z 13007KT 16/09 A3031 RMK A01 T01580094  RH  068%=      5-min Rain = 0
KONS 211805Z 14006KT 16/09 A303 RMK A01 T01600094  RH  067%=      5-min Rain = 0
KONS 211810Z 13006KT 16/09 A303 RMK A01 T01630094  RH  066%=      5-min Rain = 0
KONS 211815Z 14006KT 16/09 A303 RMK A01 T01620094  RH  066%=      5-min Rain = 0
KONS 211820Z 14007KT 17/09 A303 RMK A01 T01650094  RH  065%=      5-min Rain = 0
KONS 211825Z 13005KT 17/10 A3029 RMK A01 T01650095  RH  065%=      5-min Rain = 0
KONS 211830Z 14007KT 17/10 A3028 RMK A01 T01680095  RH  064%=      5-min Rain = 0
KONS 211835Z 15005KT 17/10 A3028 RMK A01 T01680095  RH  064%=      5-min Rain = 0
KONS 211840Z 15007KT 17/10 A3028 RMK A01 T01700095  RH  063%=      5-min Rain = 0
KONS 211845Z 15007KT 17/10 A3027 RMK A01 T01710096  RH  063%=      5-min Rain = 0
KONS 211850Z 14006KT 18/10 A3027 RMK A01 T01760097  RH  062%=      5-min Rain = 0
KONS 211855Z 17007KT 18/10 A3026 RMK A01 T01810099  RH  061%=      5-min Rain = 0
KONS 211900Z 16007KT 18/10 A3026 RMK A01 T01810097  RH  060%=      5-min Rain = 0
KONS 211905Z 18007KT 18/10 A3025 RMK A01 T01830099  RH  060%=      5-min Rain = 0
KONS 211910Z 17010G16KT 18/10 A3025 RMK A01 T01840098  RH  059%=      5-min Rain = 0
KONS 211915Z 17007KT 18/10 A3025 RMK A01 T01770096  RH  061%=      5-min Rain = 0
KONS 211920Z 17007KT 18/10 A3025 RMK A01 T01760096  RH  061%=      5-min Rain = 0
KONS 211925Z 14008KT 18/10 A3025 RMK A01 T01790097  RH  061%=      5-min Rain = 0
KONS 211930Z 13005KT 18/10 A3024 RMK A01 T01800097  RH  060%=      5-min Rain = 0
KONS 211935Z 17008KT 19/10 A3024 RMK A01 T01850099  RH  059%=      5-min Rain = 0
KONS 211940Z 19007KT 18/10 A3024 RMK A01 T01830099  RH  060%=      5-min Rain = 0
KONS 211945Z 16009G14KT 18/10 A3023 RMK A01 T01810097  RH  060%=      5-min Rain = 0
KONS 211950Z 18009KT 18/10 A3023 RMK A01 T01800098  RH  061%=      5-min Rain = 0
KONS 211955Z 16008KT 18/10 A3023 RMK A01 T01800097  RH  060%=      5-min Rain = 0
KONS 212000Z 18008KT 18/10 A3022 RMK A01 T01830098  RH  059%=      5-min Rain = 0
KONS 212005Z 18008G13KT 18/10 A3022 RMK A01 T01830099  RH  060%=      5-min Rain = 0
KONS 212010Z 17008KT 18/10 A3022 RMK A01 T01840098  RH  059%=      5-min Rain = 0
KONS 212015Z 16009G14KT 19/10 A3022 RMK A01 T01880098  RH  058%=      5-min Rain = 0
KONS 212020Z 16010KT 19/10 A3022 RMK A01 T01900097  RH  056%=      5-min Rain = 0
KONS 212025Z 16010KT 19/10 A3022 RMK A01 T01920097  RH  056%=      5-min Rain = 0
KONS 212030Z 16009KT 19/10 A3022 RMK A01 T01900095  RH  056%=      5-min Rain = 0
KONS 212035Z 16010KT 19/10 A3021 RMK A01 T01930096  RH  055%=      5-min Rain = 0
KONS 212040Z 17009KT 19/10 A3021 RMK A01 T01940096  RH  055%=      5-min Rain = 0
KONS 212045Z 18007G13KT 20/10 A3021 RMK A01 T01990099  RH  054%=      5-min Rain = 0
KONS 212050Z 18008G13KT 20/10 A3021 RMK A01 T01960098  RH  055%=      5-min Rain = 0
KONS 212055Z 16009KT 19/09 A3021 RMK A01 T01930094  RH  055%=      5-min Rain = 0
KONS 212100Z 15009G14KT 19/10 A3021 RMK A01 T01930096  RH  055%=      5-min Rain = 0
KONS 212105Z 15010KT 19/10 A3021 RMK A01 T01930096  RH  055%=      5-min Rain = 0
KONS 212110Z 16006KT 19/10 A3021 RMK A01 T01900096  RH  056%=      5-min Rain = 0
KONS 212115Z 17006KT 19/10 A3021 RMK A01 T01920097  RH  056%=      5-min Rain = 0
KONS 212120Z 16006KT 19/10 A302 RMK A01 T01940096  RH  055%=      5-min Rain = 0
KONS 212125Z 16010KT 20/10 A302 RMK A01 T01950096  RH  054%=      5-min Rain = 0
KONS 212130Z 15007KT 19/10 A302 RMK A01 T01940096  RH  055%=      5-min Rain = 0
KONS 212135Z 16010G15KT 20/10 A302 RMK A01 T01990097  RH  053%=      5-min Rain = 0
KONS 212140Z 16012KT 20/10 A302 RMK A01 T01990096  RH  053%=      5-min Rain = 0
KONS 212145Z 15010G15KT 20/10 A3019 RMK A01 T01960095  RH  054%=      5-min Rain = 0
KONS 212150Z 16010KT 20/10 A3019 RMK A01 T01950095  RH  054%=      5-min Rain = 0
KONS 212155Z 16010KT 19/10 A3019 RMK A01 T01930095  RH  055%=      5-min Rain = 0
KONS 212200Z 15010KT 19/10 A3019 RMK A01 T01940095  RH  054%=      5-min Rain = 0
KONS 212205Z 15008KT 19/10 A3019 RMK A01 T01940095  RH  054%=      5-min Rain = 0
KONS 212210Z 15011KT 20/09 A3019 RMK A01 T01970094  RH  053%=      5-min Rain = 0
KONS 212215Z 15012KT 19/09 A3019 RMK A01 T01930092  RH  053%=      5-min Rain = 0
KONS 212220Z 15010KT 19/09 A3019 RMK A01 T01890091  RH  055%=      5-min Rain = 0
KONS 212225Z 15008KT 19/09 A3019 RMK A01 T01870092  RH  056%=      5-min Rain = 0
KONS 212230Z 16010KT 19/09 A3019 RMK A01 T01850092  RH  056%=      5-min Rain = 0
KONS 212235Z 16009KT 19/09 A3019 RMK A01 T01860091  RH  056%=      5-min Rain = 0
KONS 212240Z 14008KT 19/09 A3019 RMK A01 T01860092  RH  056%=      5-min Rain = 0
KONS 212245Z 15009KT 19/09 A3019 RMK A01 T01870093  RH  056%=      5-min Rain = 0
KONS 212250Z 15010KT 19/09 A3019 RMK A01 T01850092  RH  056%=      5-min Rain = 0
KONS 212255Z 15009KT 19/09 A3019 RMK A01 T01850091  RH  056%=      5-min Rain = 0
KONS 212300Z 16010KT 18/09 A3019 RMK A01 T01830092  RH  057%=      5-min Rain = 0
KONS 212305Z 16010KT 18/09 A3019 RMK A01 T01800093  RH  058%=      5-min Rain = 0
KONS 212310Z 16010KT 18/09 A3019 RMK A01 T01770093  RH  060%=      5-min Rain = 0
KONS 212315Z 16009KT 18/09 A3019 RMK A01 T01750093  RH  061%=      5-min Rain = 0
KONS 212320Z 16009KT 17/09 A3019 RMK A01 T01710093  RH  062%=      5-min Rain = 0
KONS 212325Z 16009KT 17/09 A3019 RMK A01 T01690093  RH  063%=      5-min Rain = 0
KONS 212330Z 16010KT 17/09 A3019 RMK A01 T01670094  RH  064%=      5-min Rain = 0
KONS 212335Z 16010KT 16/10 A3019 RMK A01 T01640095  RH  065%=      5-min Rain = 0
KONS 212340Z 17010KT 16/10 A3019 RMK A01 T01600095  RH  068%=      5-min Rain = 0
KONS 212345Z 17010KT 16/10 A3019 RMK A01 T01570096  RH  069%=      5-min Rain = 0
KONS 212350Z 17010KT 16/10 A3019 RMK A01 T01560097  RH  070%=      5-min Rain = 0
KONS 212355Z 17009KT 15/10 A3019 RMK A01 T01520096  RH  072%=      5-min Rain = 0
KONS 220000Z 17009KT 15/10 A3019 RMK A01 T01490096  RH  073%=      5-min Rain = 0
KONS 220005Z 17010KT 15/10 A3019 RMK A01 T01480096  RH  074%=      5-min Rain = 0
KONS 220010Z 17010KT 15/10 A3019 RMK A01 T01460096  RH  074%=      5-min Rain = 0
KONS 220015Z 17010KT 15/10 A3019 RMK A01 T01450096  RH  075%=      5-min Rain = 0
KONS 220020Z 17009KT 14/10 A3019 RMK A01 T01440096  RH  075%=      5-min Rain = 0
KONS 220025Z 17009KT 14/10 A302 RMK A01 T01420096  RH  076%=      5-min Rain = 0
KONS 220030Z 18008KT 14/10 A302 RMK A01 T01400095  RH  077%=      5-min Rain = 0
KONS 220035Z 17008KT 14/09 A302 RMK A01 T01370094  RH  078%=      5-min Rain = 0
KONS 220040Z 17007KT 14/09 A302 RMK A01 T01360093  RH  078%=      5-min Rain = 0
KONS 220045Z 17006KT 14/09 A302 RMK A01 T01350091  RH  077%=      5-min Rain = 0
KONS 220050Z 17006KT 13/09 A302 RMK A01 T01310090  RH  079%=      5-min Rain = 0
KONS 220055Z 17006KT 13/09 A302 RMK A01 T01260088  RH  080%=      5-min Rain = 0
KONS 220100Z 17007KT 12/09 A302 RMK A01 T01220087  RH  081%=      5-min Rain = 0
KONS 220105Z 16008KT 12/09 A302 RMK A01 T01190086  RH  082%=      5-min Rain = 0
KONS 220110Z 16008KT 12/09 A302 RMK A01 T01180086  RH  083%=      5-min Rain = 0
KONS 220115Z 15007KT 12/09 A302 RMK A01 T01180087  RH  083%=      5-min Rain = 0
KONS 220120Z 15006KT 12/09 A302 RMK A01 T01190087  RH  083%=      5-min Rain = 0
KONS 220125Z 15006KT 12/09 A302 RMK A01 T01180086  RH  083%=      5-min Rain = 0
KONS 220130Z 15006KT 12/08 A302 RMK A01 T01150084  RH  083%=      5-min Rain = 0
KONS 220135Z 15006KT 11/08 A302 RMK A01 T01120083  RH  085%=      5-min Rain = 0
KONS 220140Z 14006KT 11/08 A302 RMK A01 T01090081  RH  085%=      5-min Rain = 0
KONS 220145Z 15006KT 10/08 A3021 RMK A01 T01040078  RH  086%=      5-min Rain = 0
KONS 220150Z 15007KT 10/08 A302 RMK A01 T01020078  RH  087%=      5-min Rain = 0
KONS 220155Z 14007KT 10/08 A302 RMK A01 T01010077  RH  087%=      5-min Rain = 0
KONS 220200Z 14006KT 10/08 A3021 RMK A01 T00990075  RH  088%=      5-min Rain = 0
KONS 220205Z 14007KT 10/08 A3021 RMK A01 T00980075  RH  088%=      5-min Rain = 0
KONS 220210Z 14006KT 10/08 A3021 RMK A01 T00990076  RH  088%=      5-min Rain = 0
KONS 220215Z 14006KT 10/08 A3021 RMK A01 T01000076  RH  088%=      5-min Rain = 0
KONS 220220Z 14006KT 10/08 A3021 RMK A01 T00990075  RH  088%=      5-min Rain = 0
KONS 220225Z 14008KT 10/08 A302 RMK A01 T00980076  RH  088%=      5-min Rain = 0
KONS 220230Z 14008KT 10/08 A302 RMK A01 T01000079  RH  089%=      5-min Rain = 0
KONS 220235Z 14008KT 10/08 A302 RMK A01 T01020080  RH  089%=      5-min Rain = 0
KONS 220240Z 15008KT 10/08 A302 RMK A01 T01040081  RH  088%=      5-min Rain = 0
KONS 220245Z 14008KT 11/08 A302 RMK A01 T01050081  RH  088%=      5-min Rain = 0
KONS 220250Z 14007KT 11/08 A3021 RMK A01 T01050082  RH  088%=      5-min Rain = 0
KONS 220255Z 13007KT 11/08 A3021 RMK A01 T01050081  RH  087%=      5-min Rain = 0
KONS 220300Z 14006KT 10/08 A3021 RMK A01 T01030079  RH  088%=      5-min Rain = 0
KONS 220305Z 14007KT 10/08 A302 RMK A01 T01010078  RH  088%=      5-min Rain = 0
KONS 220310Z 14008KT 10/08 A302 RMK A01 T00990078  RH  089%=      5-min Rain = 0
KONS 220315Z 14008KT 10/08 A302 RMK A01 T00990078  RH  089%=      5-min Rain = 0
KONS 220320Z 14008KT 10/08 A302 RMK A01 T00980078  RH  089%=      5-min Rain = 0
KONS 220325Z 15008KT 10/08 A302 RMK A01 T00980079  RH  090%=      5-min Rain = 0
KONS 220330Z 15008KT 10/08 A302 RMK A01 T00990079  RH  090%=      5-min Rain = 0
KONS 220335Z 14006KT 10/08 A3021 RMK A01 T00990080  RH  090%=      5-min Rain = 0
KONS 220340Z 13005KT 10/08 A3021 RMK A01 T00990080  RH  090%=      5-min Rain = 0
KONS 220345Z 12003KT 10/08 A3021 RMK A01 T01000080  RH  090%=      5-min Rain = 0
KONS 220350Z 11004KT 10/08 A3021 RMK A01 T01000080  RH  090%=      5-min Rain = 0
KONS 220355Z 10004KT 10/08 A3021 RMK A01 T00990080  RH  090%=      5-min Rain = 0
KONS 220400Z 10005KT 10/08 A3022 RMK A01 T01010083  RH  091%=      5-min Rain = 0
KONS 220405Z 09005KT 11/09 A3022 RMK A01 T01070087  RH  090%=      5-min Rain = 0
KONS 220410Z 06005KT 11/09 A3022 RMK A01 T01080086  RH  089%=      5-min Rain = 0
KONS 220415Z 05006KT 11/09 A3023 RMK A01 T01080086  RH  089%=      5-min Rain = 0
KONS 220420Z 06005KT 11/09 A3023 RMK A01 T01090087  RH  089%=      5-min Rain = 0
KONS 220425Z 07004KT 11/09 A3023 RMK A01 T01110088  RH  089%=      5-min Rain = 0
KONS 220430Z 10005KT 11/09 A3023 RMK A01 T01120088  RH  088%=      5-min Rain = 0
KONS 220435Z 11005KT 11/09 A3022 RMK A01 T01130088  RH  087%=      5-min Rain = 0
KONS 220440Z 11006KT 11/09 A3022 RMK A01 T01120087  RH  087%=      5-min Rain = 0
KONS 220445Z 12007KT 11/09 A3022 RMK A01 T01120087  RH  087%=      5-min Rain = 0
KONS 220450Z 12007KT 11/09 A3022 RMK A01 T01120087  RH  087%=      5-min Rain = 0
KONS 220455Z 12007KT 11/09 A3022 RMK A01 T01120087  RH  088%=      5-min Rain = 0
KONS 220500Z 12006KT 11/09 A3022 RMK A01 T01110087  RH  088%=      5-min Rain = 0
KONS 220505Z 12007KT 11/09 A3022 RMK A01 T01090087  RH  088%=      5-min Rain = 0
KONS 220510Z 12006KT 11/09 A3022 RMK A01 T01080086  RH  089%=      5-min Rain = 0
KONS 220515Z 11005KT 11/09 A3022 RMK A01 T01070086  RH  089%=      5-min Rain = 0
KONS 220520Z 11005KT 11/09 A3022 RMK A01 T01070086  RH  089%=      5-min Rain = 0
KONS 220525Z 11004KT 11/09 A3022 RMK A01 T01080086  RH  089%=      5-min Rain = 0
KONS 220530Z 12004KT 11/09 A3022 RMK A01 T01070086  RH  089%=      5-min Rain = 0
KONS 220535Z 12004KT 11/09 A3022 RMK A01 T01070086  RH  089%=      5-min Rain = 0
KONS 220540Z 13005KT 11/09 A3022 RMK A01 T01070085  RH  089%=      5-min Rain = 0
KONS 220545Z 13005KT 11/09 A3022 RMK A01 T01060085  RH  089%=      5-min Rain = 0
KONS 220550Z 12005KT 11/09 A3022 RMK A01 T01060085  RH  090%=      5-min Rain = 0
KONS 220555Z 13004KT 11/09 A3022 RMK A01 T01050085  RH  090%=      5-min Rain = 0

Page generated in 0.0299 seconds.